Marchena, Spain
Current Conditions -  °F | °C
As of 6:00 PM on Thursday 27 Nov 2014 (Local Time) from LEMO Reporting Station
Broken Clouds Broken Clouds  
Wind Chill: 55°   Ceiling: 4500
Heat Index: 55°   Visibility: 5mi
Dew Point: 52°   Wind: 10mph
Humidity: 88%   Direction: 180°S
Pressure: 29.38"   Gusts: NA
Location:  37.33°N, 5.42°W
Report Text: LEMO 271700Z 18009KT 120V200 8000 FEW015 BKN045 13/11 Q0995 NOSIG
Loading
Personal Weather Stations






























Interactive Weather Map New forecast layout! Learn more

10-Day Weather Forecast

Advertisements
Track Severe Weather on mobile